Time;durP1;ratioP1;P1;durP2;ratioP2;P2;SDS_P1;SDS_P2;PMS_P1;PMS_P2;Temp;Humidity;BMP_temperature;BMP_pressure;BME280_temperature;BME280_humidity;BME280_pressure;Samples;Min_cycle;Max_cycle;Signal;HPM_P1;HPM_P2
2022/08/31 00:05:28;;;;;;;11.57;6.30;;;;;;;;;;5097193;28;20715;-76
2022/08/31 00:07:55;;;;;;;10.80;5.80;;;;;;;;;;5099205;28;20251;-76
2022/08/31 00:10:27;;;;;;;10.50;6.20;;;;;;;;;;5106340;28;20258;-76
2022/08/31 00:12:55;;;;;;;8.50;5.60;;;;;;;;;;5093268;28;20228;-75
2022/08/31 00:15:25;;;;;;;8.20;5.70;;;;;;;;;;5102400;28;20662;-76
2022/08/31 00:17:56;;;;;;;11.10;5.97;;;;;;;;;;5107980;28;20239;-77
2022/08/31 00:20:27;;;;;;;10.67;6.07;;;;;;;;;;5095313;28;20213;-76
2022/08/31 00:22:54;;;;;;;13.37;6.33;;;;;;;;;;5099358;28;20230;-76
2022/08/31 00:25:25;;;;;;;12.40;6.70;;;;;;;;;;5102761;28;20213;-77
2022/08/31 00:27:54;;;;;;;10.00;6.30;;;;;;;;;;5100420;28;20733;-77
2022/08/31 00:30:25;;;;;;;11.33;6.83;;;;;;;;;;5106480;28;20221;-76
2022/08/31 00:32:52;;;;;;;10.30;6.47;;;;;;;;;;5091431;28;20849;-76
2022/08/31 00:35:21;;;;;;;11.00;6.67;;;;;;;;;;5091191;28;20658;-76
2022/08/31 00:37:48;;;;;;;11.27;7.33;;;;;;;;;;5105321;28;20193;-76
2022/08/31 00:40:16;;;;;;;12.60;7.23;;;;;;;;;;5097927;28;20285;-76
2022/08/31 00:42:43;;;;;;;8.57;6.70;;;;;;;;;;5092488;28;20234;-76
2022/08/31 00:45:12;;;;;;;11.20;7.00;;;;;;;;;;5091003;28;20253;-76
2022/08/31 00:47:41;;;;;;;9.60;7.10;;;;;;;;;;5099923;28;20203;-76
2022/08/31 00:50:11;;;;;;;8.33;6.73;;;;;;;;;;5107104;28;20304;-76
2022/08/31 00:52:40;;;;;;;12.67;6.90;;;;;;;;;;5097077;28;20201;-76
2022/08/31 00:55:10;;;;;;;10.27;7.00;;;;;;;;;;5103284;28;20672;-76
2022/08/31 00:57:38;;;;;;;9.07;7.03;;;;;;;;;;5101447;28;20295;-76
2022/08/31 01:00:07;;;;;;;10.63;6.83;;;;;;;;;;5096110;28;20677;-76
2022/08/31 01:02:34;;;;;;;9.77;6.35;;;;;;;;;;5091739;28;20665;-76
2022/08/31 01:05:02;;;;;;;9.57;6.93;;;;;;;;;;5110605;28;20321;-75
2022/08/31 01:07:30;;;;;;;11.43;7.77;;;;;;;;;;5101907;28;20282;-76
2022/08/31 01:09:57;;;;;;;11.37;7.43;;;;;;;;;;5093345;28;20318;-76
2022/08/31 01:12:28;;;;;;;7.90;6.67;;;;;;;;;;5093281;28;20257;-76
2022/08/31 01:14:56;;;;;;;10.17;6.83;;;;;;;;;;5081876;28;20225;-76
2022/08/31 01:17:24;;;;;;;14.03;7.10;;;;;;;;;;5104308;28;20230;-76
2022/08/31 01:19:56;;;;;;;9.00;6.67;;;;;;;;;;5095560;28;20285;-76
2022/08/31 01:22:28;;;;;;;13.37;7.00;;;;;;;;;;5096321;28;20230;-76
2022/08/31 01:25:00;;;;;;;12.93;7.27;;;;;;;;;;5096906;28;21697;-75
2022/08/31 01:27:30;;;;;;;13.90;6.37;;;;;;;;;;5081655;28;20294;-76
2022/08/31 01:29:59;;;;;;;13.50;7.30;;;;;;;;;;5094545;28;20250;-76
2022/08/31 01:32:28;;;;;;;9.50;6.97;;;;;;;;;;5109269;28;20253;-75
2022/08/31 01:34:58;;;;;;;9.83;6.93;;;;;;;;;;5102402;28;20293;-75
2022/08/31 01:37:25;;;;;;;10.30;6.90;;;;;;;;;;5101010;28;20234;-76
2022/08/31 01:39:52;;;;;;;12.13;7.43;;;;;;;;;;5098703;28;20217;-75
2022/08/31 01:42:21;;;;;;;10.30;6.80;;;;;;;;;;5105769;28;20763;-75
2022/08/31 01:44:48;;;;;;;11.03;6.97;;;;;;;;;;5107116;28;20233;-75
2022/08/31 01:47:15;;;;;;;13.17;7.00;;;;;;;;;;5107858;28;20233;-75
2022/08/31 01:49:43;;;;;;;10.30;7.47;;;;;;;;;;5114106;28;20321;-75
2022/08/31 01:52:10;;;;;;;8.57;6.80;;;;;;;;;;5112788;28;20202;-76
2022/08/31 01:54:37;;;;;;;10.40;7.60;;;;;;;;;;5108017;28;20251;-75
2022/08/31 01:57:05;;;;;;;8.00;7.00;;;;;;;;;;5102523;28;20300;-76
2022/08/31 01:59:33;;;;;;;9.37;7.07;;;;;;;;;;5102681;28;20321;-76
2022/08/31 02:02:00;;;;;;;11.83;7.20;;;;;;;;;;5108090;28;20234;-76
2022/08/31 02:04:28;;;;;;;11.17;7.37;;;;;;;;;;5094517;28;20281;-76
2022/08/31 02:06:57;;;;;;;9.93;7.43;;;;;;;;;;5093240;28;20213;-76
2022/08/31 02:09:25;;;;;;;10.10;7.43;;;;;;;;;;5093005;28;20226;-76
2022/08/31 02:11:52;;;;;;;12.20;7.80;;;;;;;;;;5101350;28;20230;-76
2022/08/31 02:14:20;;;;;;;10.47;7.50;;;;;;;;;;5101766;28;20230;-76
2022/08/31 02:16:49;;;;;;;15.50;7.73;;;;;;;;;;5102645;28;20285;-75
2022/08/31 02:19:16;;;;;;;11.40;6.70;;;;;;;;;;5093607;28;20260;-75
2022/08/31 02:21:44;;;;;;;11.30;7.00;;;;;;;;;;5092632;28;20248;-75
2022/08/31 02:24:11;;;;;;;10.37;7.57;;;;;;;;;;5093661;28;20202;-76
2022/08/31 02:26:38;;;;;;;15.07;7.47;;;;;;;;;;5093222;28;20204;-76
2022/08/31 02:29:06;;;;;;;11.17;7.77;;;;;;;;;;5096616;28;20247;-76
2022/08/31 02:31:34;;;;;;;11.80;7.30;;;;;;;;;;5093489;28;20218;-75
2022/08/31 02:34:02;;;;;;;11.80;7.20;;;;;;;;;;5099280;28;20692;-76
2022/08/31 02:36:32;;;;;;;11.67;7.37;;;;;;;;;;5108642;28;20202;-76
2022/08/31 02:39:00;;;;;;;11.77;7.43;;;;;;;;;;5102171;28;20281;-75
2022/08/31 02:41:27;;;;;;;12.13;7.17;;;;;;;;;;5113436;28;20253;-76
2022/08/31 02:43:55;;;;;;;10.77;7.43;;;;;;;;;;5107937;28;20202;-76
2022/08/31 02:46:22;;;;;;;12.20;7.07;;;;;;;;;;5099444;28;20620;-75
2022/08/31 02:48:49;;;;;;;12.77;7.80;;;;;;;;;;5103322;28;20293;-75
2022/08/31 02:51:18;;;;;;;10.47;7.53;;;;;;;;;;5097583;28;20278;-75
2022/08/31 02:53:45;;;;;;;10.73;7.63;;;;;;;;;;5096867;28;20286;-75
2022/08/31 02:56:13;;;;;;;12.40;7.20;;;;;;;;;;5102417;28;20633;-76
2022/08/31 02:58:40;;;;;;;13.00;7.43;;;;;;;;;;5106661;28;20251;-75
2022/08/31 03:01:07;;;;;;;11.10;7.77;;;;;;;;;;5097274;28;20281;-75
2022/08/31 03:03:35;;;;;;;12.80;7.93;;;;;;;;;;5106409;28;20310;-75
2022/08/31 03:06:02;;;;;;;10.30;7.60;;;;;;;;;;5095749;28;20226;-75
2022/08/31 03:08:33;;;;;;;13.83;8.00;;;;;;;;;;5104902;28;20230;-76
2022/08/31 03:11:04;;;;;;;12.03;7.80;;;;;;;;;;5106578;28;20249;-75
2022/08/31 03:13:31;;;;;;;13.43;7.70;;;;;;;;;;5095243;28;20226;-75
2022/08/31 03:15:59;;;;;;;15.87;7.93;;;;;;;;;;5103748;28;20644;-75
2022/08/31 03:18:26;;;;;;;12.13;8.00;;;;;;;;;;5104985;28;20236;-75
2022/08/31 03:20:53;;;;;;;13.47;7.53;;;;;;;;;;5103828;28;20281;-75
2022/08/31 03:23:20;;;;;;;10.87;7.87;;;;;;;;;;5102065;28;20285;-75
2022/08/31 03:25:49;;;;;;;12.97;7.83;;;;;;;;;;5100784;28;20289;-75
2022/08/31 03:28:16;;;;;;;11.40;7.83;;;;;;;;;;5100477;28;20230;-76
2022/08/31 03:30:44;;;;;;;13.73;8.50;;;;;;;;;;5095598;28;20249;-75
2022/08/31 03:33:11;;;;;;;14.23;8.33;;;;;;;;;;5102444;28;20284;-75
2022/08/31 03:35:42;;;;;;;12.70;8.20;;;;;;;;;;5093128;28;20230;-75
2022/08/31 03:38:11;;;;;;;11.30;7.10;;;;;;;;;;5097880;28;20796;-75
2022/08/31 03:40:38;;;;;;;9.67;7.13;;;;;;;;;;5094689;28;20938;-75
2022/08/31 03:43:10;;;;;;;15.03;7.80;;;;;;;;;;5092704;28;20226;-75
2022/08/31 03:45:38;;;;;;;11.33;7.43;;;;;;;;;;5091467;28;20251;-75
2022/08/31 03:48:06;;;;;;;14.10;7.37;;;;;;;;;;5099888;28;20241;-75
2022/08/31 03:50:33;;;;;;;14.70;7.80;;;;;;;;;;5107205;28;20257;-75
2022/08/31 03:53:02;;;;;;;11.47;7.70;;;;;;;;;;5107416;28;20281;-75
2022/08/31 03:55:30;;;;;;;13.50;7.90;;;;;;;;;;5096120;28;20202;-75
2022/08/31 03:57:57;;;;;;;12.77;7.77;;;;;;;;;;5103396;28;20316;-75
2022/08/31 04:00:26;;;;;;;12.37;7.80;;;;;;;;;;5102423;28;20195;-75
2022/08/31 04:02:58;;;;;;;12.23;7.27;;;;;;;;;;5092901;28;20205;-75
2022/08/31 04:05:25;;;;;;;13.10;7.53;;;;;;;;;;5096580;28;20281;-76
2022/08/31 04:07:53;;;;;;;12.47;7.63;;;;;;;;;;5097251;28;20630;-76
2022/08/31 04:10:21;;;;;;;13.00;7.87;;;;;;;;;;5098017;28;20301;-75
2022/08/31 04:12:49;;;;;;;14.97;7.70;;;;;;;;;;5107843;28;20198;-75
2022/08/31 04:15:17;;;;;;;14.93;8.20;;;;;;;;;;5093894;28;20285;-75
2022/08/31 04:17:46;;;;;;;11.53;7.57;;;;;;;;;;5091928;28;20963;-75
2022/08/31 04:20:13;;;;;;;11.83;7.80;;;;;;;;;;5096201;28;20290;-75
2022/08/31 04:22:40;;;;;;;13.60;7.47;;;;;;;;;;5092821;28;20662;-75
2022/08/31 04:25:09;;;;;;;12.07;7.63;;;;;;;;;;5091209;28;20230;-75
2022/08/31 04:27:37;;;;;;;12.50;7.80;;;;;;;;;;5098347;28;20288;-75
2022/08/31 04:30:05;;;;;;;12.47;7.57;;;;;;;;;;5108757;28;20205;-75
2022/08/31 04:32:32;;;;;;;12.67;7.43;;;;;;;;;;5098953;28;20284;-75
2022/08/31 04:35:01;;;;;;;11.33;7.53;;;;;;;;;;5098540;28;20280;-76
2022/08/31 04:37:29;;;;;;;13.70;8.10;;;;;;;;;;5094181;28;20613;-75
2022/08/31 04:39:57;;;;;;;11.07;7.50;;;;;;;;;;5094068;28;20204;-76
2022/08/31 04:42:24;;;;;;;13.63;7.87;;;;;;;;;;5107360;28;20237;-75
2022/08/31 04:44:51;;;;;;;11.83;7.37;;;;;;;;;;5095898;28;20232;-75
2022/08/31 04:47:20;;;;;;;12.13;7.10;;;;;;;;;;5103636;28;20648;-75
2022/08/31 04:49:47;;;;;;;11.50;7.53;;;;;;;;;;5111896;28;20198;-75
2022/08/31 04:52:16;;;;;;;11.97;7.40;;;;;;;;;;5111262;28;20260;-75
2022/08/31 04:54:43;;;;;;;15.17;7.63;;;;;;;;;;5099679;28;20666;-75
2022/08/31 04:57:10;;;;;;;12.33;7.57;;;;;;;;;;5097121;28;20824;-75
2022/08/31 04:59:37;;;;;;;11.90;7.70;;;;;;;;;;5095991;28;20277;-76
2022/08/31 05:02:04;;;;;;;11.67;7.23;;;;;;;;;;5107401;28;20605;-76
2022/08/31 05:04:32;;;;;;;11.77;7.53;;;;;;;;;;5101683;28;20233;-75
2022/08/31 05:06:59;;;;;;;13.03;7.83;;;;;;;;;;5107992;28;20276;-74
2022/08/31 05:09:28;;;;;;;11.80;8.00;;;;;;;;;;5110630;28;20285;-75
2022/08/31 05:11:55;;;;;;;11.37;7.20;;;;;;;;;;5096623;28;20217;-75
2022/08/31 05:14:23;;;;;;;12.40;7.07;;;;;;;;;;5105517;28;20222;-75
2022/08/31 05:16:51;;;;;;;9.83;7.53;;;;;;;;;;5096360;28;20285;-75
2022/08/31 05:19:19;;;;;;;13.90;7.37;;;;;;;;;;5093601;28;20226;-74
2022/08/31 05:21:46;;;;;;;11.50;6.73;;;;;;;;;;5090726;28;20567;-74
2022/08/31 05:24:14;;;;;;;9.87;6.73;;;;;;;;;;5109715;28;20312;-75
2022/08/31 05:26:44;;;;;;;12.23;7.03;;;;;;;;;;5097019;28;20198;-75
2022/08/31 05:29:13;;;;;;;15.73;7.07;;;;;;;;;;5090320;28;20199;-75
2022/08/31 05:31:40;;;;;;;10.63;7.20;;;;;;;;;;5099512;28;20214;-75
2022/08/31 05:34:11;;;;;;;13.33;7.00;;;;;;;;;;5087798;28;20283;-75
2022/08/31 05:36:42;;;;;;;10.20;6.83;;;;;;;;;;5085917;28;20191;-75
2022/08/31 05:39:13;;;;;;;10.77;6.67;;;;;;;;;;5086303;28;20274;-74
2022/08/31 05:41:41;;;;;;;11.87;6.80;;;;;;;;;;5089303;28;20238;-74
2022/08/31 05:44:11;;;;;;;10.40;6.40;;;;;;;;;;5096488;28;20281;-74
2022/08/31 05:46:40;;;;;;;9.73;6.83;;;;;;;;;;5101635;28;20285;-74
2022/08/31 05:49:08;;;;;;;13.20;6.73;;;;;;;;;;5092072;28;20229;-74
2022/08/31 05:51:36;;;;;;;13.83;6.60;;;;;;;;;;5098301;28;20675;-74
2022/08/31 05:54:03;;;;;;;11.43;6.10;;;;;;;;;;5099569;28;20277;-74
2022/08/31 05:56:30;;;;;;;10.47;6.20;;;;;;;;;;5101195;28;20206;-74
2022/08/31 05:58:57;;;;;;;10.97;6.63;;;;;;;;;;5094044;28;20262;-74
2022/08/31 06:01:29;;;;;;;11.30;6.17;;;;;;;;;;5094744;28;20842;-75
2022/08/31 06:03:58;;;;;;;9.23;6.03;;;;;;;;;;5090369;28;20198;-74
2022/08/31 06:06:25;;;;;;;11.27;6.10;;;;;;;;;;5107694;28;20271;-79
2022/08/31 06:08:52;;;;;;;10.47;6.57;;;;;;;;;;5098070;28;20298;-77
2022/08/31 06:11:20;;;;;;;10.87;5.93;;;;;;;;;;5096343;28;20293;-78
2022/08/31 06:13:49;;;;;;;9.80;6.03;;;;;;;;;;5091987;28;20289;-79
2022/08/31 06:16:16;;;;;;;7.57;5.53;;;;;;;;;;5095855;28;20208;-79
2022/08/31 06:18:49;;;;;;;11.77;5.28;;;;;;;;;;5100388;28;20202;-78
2022/08/31 06:21:19;;;;;;;8.13;5.38;;;;;;;;;;5091008;28;20225;-79
2022/08/31 06:23:47;;;;;;;11.27;5.78;;;;;;;;;;5085428;28;20248;-79
2022/08/31 06:26:15;;;;;;;8.25;5.28;;;;;;;;;;5100485;28;20209;-79
2022/08/31 06:28:46;;;;;;;11.02;5.20;;;;;;;;;;5102457;28;20280;-79
2022/08/31 06:31:15;;;;;;;8.77;5.78;;;;;;;;;;5111929;28;20304;-79
2022/08/31 06:33:42;;;;;;;10.70;5.22;;;;;;;;;;5114000;28;20296;-79
2022/08/31 06:36:11;;;;;;;9.32;5.13;;;;;;;;;;5109046;28;20233;-78
2022/08/31 06:38:39;;;;;;;9.55;6.07;;;;;;;;;;5088421;28;20237;-78
2022/08/31 06:41:16;;;;;;;12.63;5.68;;;;;;;;;;5093169;28;20226;-80
2022/08/31 06:43:44;;;;;;;10.75;5.97;;;;;;;;;;5093924;28;20289;-80
2022/08/31 06:46:12;;;;;;;10.10;5.80;;;;;;;;;;5100885;28;20193;-79
2022/08/31 06:48:40;;;;;;;10.77;5.97;;;;;;;;;;5094418;28;20199;-79
2022/08/31 06:51:08;;;;;;;9.53;5.90;;;;;;;;;;5102998;28;20362;-80
2022/08/31 06:53:39;;;;;;;8.73;5.67;;;;;;;;;;5112829;28;20788;-80
2022/08/31 06:56:06;;;;;;;9.23;5.72;;;;;;;;;;5110792;28;20202;-79
2022/08/31 06:58:34;;;;;;;13.20;5.72;;;;;;;;;;5094967;28;20297;-79
2022/08/31 07:01:06;;;;;;;12.03;5.40;;;;;;;;;;5097640;28;20226;-79
2022/08/31 07:03:34;;;;;;;11.38;5.40;;;;;;;;;;5110907;28;20695;-79
2022/08/31 07:06:05;;;;;;;9.90;5.15;;;;;;;;;;5101421;28;20277;-79
2022/08/31 07:08:33;;;;;;;11.73;5.30;;;;;;;;;;5109230;28;20281;-79
2022/08/31 07:11:01;;;;;;;9.48;4.93;;;;;;;;;;5095612;28;20218;-79
2022/08/31 07:13:29;;;;;;;9.15;4.45;;;;;;;;;;5113461;28;20229;-79
2022/08/31 07:16:03;;;;;;;8.02;4.47;;;;;;;;;;5108403;28;20244;-79
2022/08/31 07:18:31;;;;;;;8.73;4.82;;;;;;;;;;5101669;28;20554;-79
2022/08/31 07:21:06;;;;;;;10.13;4.60;;;;;;;;;;5100981;28;20665;-79
2022/08/31 07:23:34;;;;;;;7.97;4.20;;;;;;;;;;5098738;28;22082;-79
2022/08/31 07:26:05;;;;;;;7.60;4.18;;;;;;;;;;5093784;28;20206;-79
2022/08/31 07:28:33;;;;;;;8.40;4.28;;;;;;;;;;5107853;28;20273;-79
2022/08/31 07:31:04;;;;;;;8.52;4.20;;;;;;;;;;5080950;28;20705;-79
2022/08/31 07:33:37;;;;;;;8.43;4.32;;;;;;;;;;5092696;28;20674;-80
2022/08/31 07:36:05;;;;;;;6.60;4.18;;;;;;;;;;5109345;28;20201;-78
2022/08/31 07:44:04;;;;;;;6.80;4.00;;;;;;;;;;5108157;28;20200;-80
2022/08/31 07:46:31;;;;;;;7.95;3.80;;;;;;;;;;5098941;28;20674;-80
2022/08/31 07:48:59;;;;;;;8.65;4.28;;;;;;;;;;5097331;28;20202;-80
2022/08/31 07:51:26;;;;;;;8.65;4.50;;;;;;;;;;5091515;28;20249;-79
2022/08/31 07:53:54;;;;;;;7.85;4.43;;;;;;;;;;5104166;28;20230;-79
2022/08/31 07:56:24;;;;;;;6.60;4.13;;;;;;;;;;5101987;28;20745;-79
2022/08/31 07:58:51;;;;;;;7.25;4.40;;;;;;;;;;5103469;27;20214;-79
2022/08/31 08:01:18;;;;;;;11.13;4.70;;;;;;;;;;5099203;28;20216;-79
2022/08/31 08:03:46;;;;;;;10.00;4.25;;;;;;;;;;5104205;28;20230;-79
2022/08/31 08:06:15;;;;;;;7.95;4.03;;;;;;;;;;5092560;28;20233;-79
2022/08/31 08:08:42;;;;;;;7.40;4.32;;;;;;;;;;5098143;28;20285;-79
2022/08/31 08:11:10;;;;;;;8.40;4.75;;;;;;;;;;5101725;28;20209;-79
2022/08/31 08:13:38;;;;;;;10.43;4.05;;;;;;;;;;5095443;28;20939;-79
2022/08/31 08:16:06;;;;;;;6.20;4.45;;;;;;;;;;5093237;28;20226;-79
2022/08/31 08:18:33;;;;;;;8.20;4.82;;;;;;;;;;5099251;28;20294;-79
2022/08/31 08:21:00;;;;;;;8.65;4.07;;;;;;;;;;5090471;28;20279;-79
2022/08/31 08:23:27;;;;;;;6.40;3.88;;;;;;;;;;5088662;28;20246;-80
2022/08/31 08:25:54;;;;;;;7.07;4.25;;;;;;;;;;5109178;28;20289;-80
2022/08/31 08:28:22;;;;;;;6.70;3.90;;;;;;;;;;5093534;28;20292;-80
2022/08/31 08:30:53;;;;;;;13.27;4.22;;;;;;;;;;5093222;28;20927;-80
2022/08/31 08:33:20;;;;;;;7.97;3.92;;;;;;;;;;5102597;28;20219;-80
2022/08/31 08:35:55;;;;;;;7.78;3.65;;;;;;;;;;5102746;28;20234;-80
2022/08/31 08:38:23;;;;;;;7.68;3.90;;;;;;;;;;5100939;28;20197;-80
2022/08/31 08:40:50;;;;;;;8.80;4.20;;;;;;;;;;5092855;28;20264;-80
2022/08/31 08:43:19;;;;;;;8.25;4.35;;;;;;;;;;5100681;28;20222;-79
2022/08/31 08:45:48;;;;;;;8.52;4.30;;;;;;;;;;5092522;28;20240;-80
2022/08/31 08:48:21;;;;;;;6.93;3.92;;;;;;;;;;5092703;28;20202;-80
2022/08/31 08:50:51;;;;;;;9.15;4.15;;;;;;;;;;5098797;28;20209;-80
2022/08/31 08:53:22;;;;;;;8.65;4.10;;;;;;;;;;5101862;28;20214;-80
2022/08/31 08:55:49;;;;;;;5.53;3.60;;;;;;;;;;5100028;28;20244;-80
2022/08/31 08:58:18;;;;;;;6.38;4.15;;;;;;;;;;5095653;28;20245;-80
2022/08/31 09:00:48;;;;;;;7.63;4.05;;;;;;;;;;5103833;28;21927;-79
2022/08/31 09:03:20;;;;;;;9.75;4.10;;;;;;;;;;5091254;28;20257;-80
2022/08/31 09:05:58;;;;;;;6.68;4.05;;;;;;;;;;5101756;28;20193;-80
2022/08/31 09:08:34;;;;;;;9.60;4.03;;;;;;;;;;5094245;28;20281;-80
2022/08/31 09:11:07;;;;;;;5.57;4.00;;;;;;;;;;5111707;28;20251;-80
2022/08/31 09:13:38;;;;;;;9.10;4.07;;;;;;;;;;5102449;28;20305;-80
2022/08/31 09:16:11;;;;;;;7.20;4.10;;;;;;;;;;5096619;28;20225;-80
2022/08/31 09:18:44;;;;;;;7.82;4.50;;;;;;;;;;5073010;28;20238;-80
2022/08/31 09:21:20;;;;;;;6.47;4.35;;;;;;;;;;5070444;28;20675;-80
2022/08/31 09:23:51;;;;;;;5.65;3.83;;;;;;;;;;5093568;28;20201;-80
2022/08/31 09:26:23;;;;;;;9.77;4.07;;;;;;;;;;5105396;28;20202;-80
2022/08/31 09:28:51;;;;;;;10.25;4.10;;;;;;;;;;5088100;28;20647;-80
2022/08/31 09:31:37;;;;;;;6.70;4.00;;;;;;;;;;5090172;28;20256;-80
2022/08/31 09:34:07;;;;;;;11.35;4.40;;;;;;;;;;5112849;28;20212;-80
2022/08/31 09:36:39;;;;;;;8.57;4.07;;;;;;;;;;5096004;28;20202;-80
2022/08/31 09:39:16;;;;;;;8.90;4.53;;;;;;;;;;5101237;28;20207;-81
2022/08/31 09:41:44;;;;;;;7.85;4.45;;;;;;;;;;5111824;28;20257;-80
2022/08/31 09:44:20;;;;;;;6.90;4.10;;;;;;;;;;5109401;28;20199;-80
2022/08/31 09:46:48;;;;;;;8.15;4.13;;;;;;;;;;5093557;28;20600;-80
2022/08/31 09:49:21;;;;;;;6.35;3.47;;;;;;;;;;5107091;28;20284;-80
2022/08/31 09:51:48;;;;;;;5.15;3.90;;;;;;;;;;5113042;28;20258;-80
2022/08/31 09:57:05;;;;;;;5.15;3.60;;;;;;;;;;5114174;28;20966;-80
2022/08/31 09:59:39;;;;;;;5.70;3.10;;;;;;;;;;5101477;28;20301;-80
2022/08/31 10:02:11;;;;;;;6.22;4.07;;;;;;;;;;5102121;28;20194;-81
2022/08/31 10:04:49;;;;;;;10.77;3.78;;;;;;;;;;5094120;28;20234;-80
2022/08/31 10:07:27;;;;;;;7.68;3.58;;;;;;;;;;5096841;28;20197;-80
2022/08/31 10:09:56;;;;;;;8.55;3.45;;;;;;;;;;5100387;28;20204;-80
2022/08/31 10:12:27;;;;;;;6.32;3.42;;;;;;;;;;5112988;28;20256;-80
2022/08/31 10:14:56;;;;;;;8.57;3.40;;;;;;;;;;5100221;28;20281;-80
2022/08/31 10:17:27;;;;;;;8.80;3.97;;;;;;;;;;5094219;28;20293;-80
2022/08/31 10:20:00;;;;;;;8.27;3.63;;;;;;;;;;5098741;28;20677;-81
2022/08/31 10:22:31;;;;;;;5.78;3.67;;;;;;;;;;5107386;28;20571;-80
2022/08/31 10:25:10;;;;;;;7.85;3.95;;;;;;;;;;5101224;28;20738;-80
2022/08/31 10:27:40;;;;;;;5.75;4.10;;;;;;;;;;5091985;28;20202;-80
2022/08/31 10:30:09;;;;;;;7.20;3.50;;;;;;;;;;5107017;28;20249;-80
2022/08/31 10:32:38;;;;;;;6.47;3.78;;;;;;;;;;5093384;28;20804;-81
2022/08/31 10:35:09;;;;;;;10.63;3.92;;;;;;;;;;5110061;28;20193;-80
2022/08/31 10:37:43;;;;;;;8.50;3.80;;;;;;;;;;5101182;28;20285;-78
2022/08/31 10:40:13;;;;;;;8.55;3.90;;;;;;;;;;5101681;28;20197;-80
2022/08/31 10:42:43;;;;;;;6.95;3.83;;;;;;;;;;5096040;28;20197;-80
2022/08/31 10:45:13;;;;;;;6.30;4.18;;;;;;;;;;5091520;28;20222;-80
2022/08/31 10:47:45;;;;;;;7.60;3.63;;;;;;;;;;5108934;28;20211;-80
2022/08/31 10:50:16;;;;;;;5.07;3.50;;;;;;;;;;5093695;28;20281;-81
2022/08/31 10:52:53;;;;;;;5.93;3.50;;;;;;;;;;5098842;28;20210;-77
2022/08/31 10:55:32;;;;;;;7.85;3.50;;;;;;;;;;5107110;28;20202;-80
2022/08/31 10:58:04;;;;;;;8.05;4.10;;;;;;;;;;5102701;27;20639;-80
2022/08/31 11:00:44;;;;;;;10.00;3.85;;;;;;;;;;5093991;28;20243;-80
2022/08/31 11:03:13;;;;;;;7.43;3.92;;;;;;;;;;5096273;28;20239;-80
2022/08/31 11:05:44;;;;;;;5.60;4.35;;;;;;;;;;5097493;28;20222;-80
2022/08/31 11:08:30;;;;;;;8.10;4.00;;;;;;;;;;5102428;28;20285;-80
2022/08/31 11:10:58;;;;;;;8.88;4.13;;;;;;;;;;5104577;28;20213;-80
2022/08/31 11:13:37;;;;;;;5.20;3.70;;;;;;;;;;5110127;28;20218;-80
2022/08/31 11:16:15;;;;;;;6.20;3.33;;;;;;;;;;5101731;28;20225;-80
2022/08/31 11:18:58;;;;;;;3.83;3.13;;;;;;;;;;5092612;28;20230;-80
2022/08/31 11:21:34;;;;;;;4.90;3.35;;;;;;;;;;5105328;28;20687;-80
2022/08/31 11:24:06;;;;;;;6.43;3.47;;;;;;;;;;5111102;28;20204;-80
2022/08/31 11:26:57;;;;;;;5.55;3.50;;;;;;;;;;5105412;28;20236;-80
2022/08/31 11:29:35;;;;;;;6.28;3.28;;;;;;;;;;5092828;28;20237;-80
2022/08/31 11:32:07;;;;;;;7.40;3.25;;;;;;;;;;5092484;28;20237;-81
2022/08/31 11:34:45;;;;;;;7.43;3.35;;;;;;;;;;5095317;28;20312;-81
2022/08/31 11:37:34;;;;;;;9.07;3.78;;;;;;;;;;5102933;28;20600;-80
2022/08/31 11:40:01;;;;;;;7.30;3.40;;;;;;;;;;5110999;28;20201;-80
2022/08/31 11:42:46;;;;;;;5.80;3.15;;;;;;;;;;5091470;28;20258;-80
2022/08/31 11:45:30;;;;;;;6.80;3.88;;;;;;;;;;5079361;28;20202;-80
2022/08/31 11:47:58;;;;;;;7.13;3.50;;;;;;;;;;5093109;28;20220;-81
2022/08/31 11:50:55;;;;;;;6.57;3.20;;;;;;;;;;5092706;28;20206;-81
2022/08/31 11:53:31;;;;;;;3.47;3.03;;;;;;;;;;5091602;28;20726;-74
2022/08/31 11:56:04;;;;;;;5.25;2.95;;;;;;;;;;5107877;28;20288;-75
2022/08/31 11:58:33;;;;;;;4.75;3.15;;;;;;;;;;5094534;28;20294;-75
2022/08/31 12:01:19;;;;;;;4.60;2.97;;;;;;;;;;5091175;28;20281;-75
2022/08/31 12:03:51;;;;;;;4.70;2.88;;;;;;;;;;5082664;28;20805;-75
2022/08/31 12:06:37;;;;;;;4.07;3.05;;;;;;;;;;5090845;28;20284;-75
2022/08/31 12:09:18;;;;;;;5.88;3.70;;;;;;;;;;5097738;28;20202;-74
2022/08/31 12:11:48;;;;;;;3.63;2.90;;;;;;;;;;5092629;28;20244;-75
2022/08/31 12:14:19;;;;;;;6.35;3.03;;;;;;;;;;5105405;28;20260;-75
2022/08/31 12:16:57;;;;;;;6.05;3.15;;;;;;;;;;5099669;28;20229;-75
2022/08/31 12:20:11;;;;;;;5.32;2.90;;;;;;;;;;5094030;28;20195;-74
2022/08/31 12:25:53;;;;;;;4.05;2.90;;;;;;;;;;5111971;28;20285;-75
2022/08/31 12:28:25;;;;;;;6.97;3.15;;;;;;;;;;5111499;28;20228;-74
2022/08/31 12:30:53;;;;;;;6.18;3.00;;;;;;;;;;5103155;28;20257;-75
2022/08/31 12:33:22;;;;;;;3.30;2.90;;;;;;;;;;5094049;28;20206;-75
2022/08/31 12:35:53;;;;;;;4.72;2.60;;;;;;;;;;5091152;28;20301;-76
2022/08/31 12:38:21;;;;;;;3.33;2.80;;;;;;;;;;5097999;28;20236;-75
2022/08/31 12:40:53;;;;;;;5.30;2.83;;;;;;;;;;5095874;28;20258;-75
2022/08/31 12:43:21;;;;;;;3.33;2.97;;;;;;;;;;5107746;28;20202;-75
2022/08/31 12:46:03;;;;;;;5.38;2.92;;;;;;;;;;5100513;28;20285;-75
2022/08/31 12:48:35;;;;;;;6.25;2.70;;;;;;;;;;5099717;28;20285;-75
2022/08/31 12:51:07;;;;;;;4.60;2.75;;;;;;;;;;5091068;28;20697;-75
2022/08/31 12:53:44;;;;;;;5.93;3.00;;;;;;;;;;5070875;28;20588;-74
2022/08/31 12:56:15;;;;;;;4.10;2.70;;;;;;;;;;5107385;28;20658;-74
2022/08/31 12:58:51;;;;;;;8.38;2.97;;;;;;;;;;5098915;28;20218;-75
2022/08/31 13:01:20;;;;;;;4.20;2.95;;;;;;;;;;5089763;28;20294;-75
2022/08/31 13:03:49;;;;;;;6.40;2.65;;;;;;;;;;5107553;28;20221;-75
2022/08/31 13:06:23;;;;;;;3.53;2.53;;;;;;;;;;5103555;28;20202;-74
2022/08/31 13:08:52;;;;;;;4.13;2.92;;;;;;;;;;5095300;28;20616;-74
2022/08/31 13:11:26;;;;;;;3.05;2.78;;;;;;;;;;5095077;28;20297;-75
2022/08/31 13:13:54;;;;;;;5.85;3.05;;;;;;;;;;5101357;28;20305;-74
2022/08/31 13:16:21;;;;;;;8.23;3.20;;;;;;;;;;5115316;28;20240;-75
2022/08/31 13:18:50;;;;;;;2.92;2.63;;;;;;;;;;5113794;28;20204;-74
2022/08/31 13:21:20;;;;;;;5.88;2.80;;;;;;;;;;5115508;28;20928;-74
2022/08/31 13:23:49;;;;;;;3.28;2.50;;;;;;;;;;5100239;28;20226;-74
2022/08/31 13:26:19;;;;;;;4.55;2.65;;;;;;;;;;5094805;28;20712;-74
2022/08/31 13:28:50;;;;;;;3.83;2.70;;;;;;;;;;5094758;28;20201;-75
2022/08/31 13:31:20;;;;;;;4.18;2.97;;;;;;;;;;5094803;28;20291;-74
2022/08/31 13:33:47;;;;;;;4.03;2.55;;;;;;;;;;5094995;28;20286;-74
2022/08/31 13:36:22;;;;;;;3.30;2.72;;;;;;;;;;5100987;28;20672;-74
2022/08/31 13:38:52;;;;;;;3.50;2.70;;;;;;;;;;5104967;28;20300;-75
2022/08/31 13:41:26;;;;;;;5.72;2.55;;;;;;;;;;5115025;28;20225;-74
2022/08/31 13:44:00;;;;;;;3.00;2.65;;;;;;;;;;5103923;28;20202;-74
2022/08/31 13:46:28;;;;;;;5.03;2.97;;;;;;;;;;5102127;28;20195;-74
2022/08/31 13:49:00;;;;;;;4.32;2.80;;;;;;;;;;5098675;28;20228;-75
2022/08/31 13:51:28;;;;;;;3.65;2.53;;;;;;;;;;5110039;28;21037;-75
2022/08/31 13:54:07;;;;;;;5.65;2.60;;;;;;;;;;5113005;28;20224;-74
2022/08/31 13:56:56;;;;;;;6.68;2.67;;;;;;;;;;5100493;28;20304;-75
2022/08/31 13:59:30;;;;;;;4.38;2.60;;;;;;;;;;5096208;28;20218;-74
2022/08/31 14:01:58;;;;;;;3.88;2.78;;;;;;;;;;5093819;28;20726;-74
2022/08/31 14:04:47;;;;;;;5.05;2.70;;;;;;;;;;5094407;28;20294;-73
2022/08/31 14:07:18;;;;;;;5.70;3.08;;;;;;;;;;5093937;28;20198;-75
2022/08/31 14:09:46;;;;;;;3.47;2.83;;;;;;;;;;5097957;28;20207;-74
2022/08/31 14:12:33;;;;;;;4.45;2.80;;;;;;;;;;5114064;28;20681;-74
2022/08/31 14:15:07;;;;;;;5.93;2.90;;;;;;;;;;5111118;28;20271;-74
2022/08/31 14:17:35;;;;;;;3.13;2.63;;;;;;;;;;5100344;28;20282;-75
2022/08/31 14:20:17;;;;;;;4.25;2.60;;;;;;;;;;5100225;28;20230;-75
2022/08/31 14:22:48;;;;;;;3.35;2.90;;;;;;;;;;5073360;28;20202;-74
2022/08/31 14:25:18;;;;;;;4.60;2.60;;;;;;;;;;5073474;28;20563;-75
2022/08/31 14:27:46;;;;;;;4.38;2.97;;;;;;;;;;5073547;28;20203;-74
2022/08/31 14:30:14;;;;;;;3.85;2.80;;;;;;;;;;5073546;28;20586;-74
2022/08/31 14:32:42;;;;;;;4.43;2.95;;;;;;;;;;5112975;28;20289;-74
2022/08/31 14:35:10;;;;;;;3.92;2.80;;;;;;;;;;5106345;28;20214;-73
2022/08/31 14:37:42;;;;;;;3.58;2.90;;;;;;;;;;5102679;28;20212;-74
2022/08/31 14:40:12;;;;;;;3.00;2.65;;;;;;;;;;5114096;28;20318;-74
2022/08/31 14:42:40;;;;;;;6.00;3.20;;;;;;;;;;5094419;28;20206;-74
2022/08/31 14:45:09;;;;;;;3.83;2.72;;;;;;;;;;5093534;28;20581;-74
2022/08/31 14:47:42;;;;;;;4.32;2.67;;;;;;;;;;5093459;28;20240;-75
2022/08/31 14:50:10;;;;;;;4.03;2.83;;;;;;;;;;5093267;28;20237;-75
2022/08/31 14:52:38;;;;;;;5.13;2.70;;;;;;;;;;5104156;28;20765;-74
2022/08/31 14:55:07;;;;;;;5.93;2.78;;;;;;;;;;5113450;28;20294;-74
2022/08/31 14:57:35;;;;;;;4.43;2.80;;;;;;;;;;5110811;28;20272;-74
2022/08/31 15:00:05;;;;;;;4.25;3.03;;;;;;;;;;5092597;28;20741;-74
2022/08/31 15:02:33;;;;;;;5.43;2.85;;;;;;;;;;5097487;28;20246;-74
2022/08/31 15:05:04;;;;;;;6.03;2.97;;;;;;;;;;5102695;28;20276;-75
2022/08/31 15:07:33;;;;;;;4.90;2.95;;;;;;;;;;5094778;28;20263;-74
2022/08/31 15:10:01;;;;;;;4.90;2.83;;;;;;;;;;5101848;28;20263;-74
2022/08/31 15:12:28;;;;;;;2.97;2.67;;;;;;;;;;5103690;28;20281;-74